sensor_id;sensor_type;location;lat;lon;timestamp;pressure;altitude;pressure_sealevel;temperature;humidity
10075;BME280;5076;42.680;23.288;2023-02-07T12:49:18;96238.66;;;0.09;88.29
10075;BME280;5076;42.680;23.288;2023-02-07T12:51:57;96216.53;;;-0.38;90.47
10075;BME280;5076;42.680;23.288;2023-02-07T12:54:42;96210.28;;;-0.19;87.89
10075;BME280;5076;42.680;23.288;2023-02-07T12:57:17;96213.41;;;-0.07;88.18
10075;BME280;5076;42.680;23.288;2023-02-07T12:59:56;96216.31;;;-0.44;87.92
10075;BME280;5076;42.680;23.288;2023-02-07T13:02:39;96221.84;;;-0.47;89.39
10075;BME280;5076;42.680;23.288;2023-02-07T13:05:28;96223.88;;;-0.59;88.92
10075;BME280;5076;42.680;23.288;2023-02-07T13:08:06;96235.91;;;-0.32;93.75
10075;BME280;5076;42.680;23.288;2023-02-07T13:10:47;96225.91;;;-0.11;96.33
10075;BME280;5076;42.680;23.288;2023-02-07T13:13:22;96200.78;;;-0.02;90.89
10075;BME280;5076;42.680;23.288;2023-02-07T13:15:59;96209.31;;;-0.52;89.67
10075;BME280;5076;42.680;23.288;2023-02-07T13:19:10;96230.03;;;-0.34;89.47
10075;BME280;5076;42.680;23.288;2023-02-07T13:25:22;96227.88;;;-0.05;87.06
10075;BME280;5076;42.680;23.288;2023-02-07T13:27:52;96219.22;;;0.37;87.32
10075;BME280;5076;42.680;23.288;2023-02-07T13:30:21;96209.16;;;0.42;85.24
10075;BME280;5076;42.680;23.288;2023-02-07T13:32:51;96213.41;;;1.08;85.75
10075;BME280;5076;42.680;23.288;2023-02-07T13:35:20;96228.69;;;1.11;84.87
10075;BME280;5076;42.680;23.288;2023-02-07T13:37:54;96205.75;;;0.50;83.21
10075;BME280;5076;42.680;23.288;2023-02-07T13:40:41;96200.16;;;0.20;89.26
10075;BME280;5076;42.680;23.288;2023-02-07T13:43:33;96222.25;;;-0.26;87.56
10075;BME280;5076;42.680;23.288;2023-02-07T17:50:17;96385.19;;;-4.64;100.00
10075;BME280;5076;42.680;23.288;2023-02-07T17:52:44;96367.06;;;-4.73;100.00
10075;BME280;5076;42.680;23.288;2023-02-07T17:58:20;96369.84;;;-4.65;100.00
10075;BME280;5076;42.680;23.288;2023-02-07T18:00:47;96386.25;;;-4.66;100.00
10075;BME280;5076;42.680;23.288;2023-02-07T18:03:15;96368.50;;;-4.80;100.00
10075;BME280;5076;42.680;23.288;2023-02-07T18:05:46;96379.94;;;-4.73;100.00
10075;BME280;5076;42.680;23.288;2023-02-07T18:08:13;96362.91;;;-4.85;100.00
10075;BME280;5076;42.680;23.288;2023-02-07T18:10:40;96387.50;;;-4.81;100.00
10075;BME280;5076;42.680;23.288;2023-02-07T18:13:06;96371.69;;;-4.88;100.00
10075;BME280;5076;42.680;23.288;2023-02-07T18:15:33;96377.31;;;-4.83;100.00
10075;BME280;5076;42.680;23.288;2023-02-07T18:18:00;96387.25;;;-4.78;100.00
10075;BME280;5076;42.680;23.288;2023-02-07T18:20:30;96390.19;;;-4.83;100.00
10075;BME280;5076;42.680;23.288;2023-02-07T18:22:59;96387.31;;;-4.89;100.00
10075;BME280;5076;42.680;23.288;2023-02-07T18:25:27;96392.47;;;-4.89;100.00
10075;BME280;5076;42.680;23.288;2023-02-07T18:27:56;96392.25;;;-4.98;100.00
10075;BME280;5076;42.680;23.288;2023-02-07T18:30:28;96391.31;;;-4.97;100.00
10075;BME280;5076;42.680;23.288;2023-02-07T18:32:55;96397.28;;;-4.96;100.00
10075;BME280;5076;42.680;23.288;2023-02-07T18:35:23;96372.38;;;-5.07;100.00
10075;BME280;5076;42.680;23.288;2023-02-07T18:37:50;96397.66;;;-5.01;100.00
10075;BME280;5076;42.680;23.288;2023-02-07T18:40:19;96394.75;;;-5.07;100.00
10075;BME280;5076;42.680;23.288;2023-02-07T18:42:46;96406.13;;;-5.10;100.00
10075;BME280;5076;42.680;23.288;2023-02-07T18:45:13;96419.47;;;-5.05;100.00
10075;BME280;5076;42.680;23.288;2023-02-07T18:47:40;96401.56;;;-5.06;100.00
10075;BME280;5076;42.680;23.288;2023-02-07T18:50:09;96403.78;;;-5.13;100.00
10075;BME280;5076;42.680;23.288;2023-02-07T18:52:36;96398.44;;;-5.21;100.00
10075;BME280;5076;42.680;23.288;2023-02-07T18:55:04;96415.16;;;-5.15;100.00
10075;BME280;5076;42.680;23.288;2023-02-07T18:57:32;96419.72;;;-5.19;100.00
10075;BME280;5076;42.680;23.288;2023-02-07T18:59:59;96414.97;;;-5.23;100.00
10075;BME280;5076;42.680;23.288;2023-02-07T19:02:26;96408.28;;;-5.26;100.00
10075;BME280;5076;42.680;23.288;2023-02-07T19:04:53;96418.72;;;-5.27;100.00
10075;BME280;5076;42.680;23.288;2023-02-07T19:07:20;96396.72;;;-5.43;100.00
10075;BME280;5076;42.680;23.288;2023-02-07T19:09:47;96403.16;;;-5.37;100.00
10075;BME280;5076;42.680;23.288;2023-02-07T19:12:14;96416.88;;;-5.37;100.00
10075;BME280;5076;42.680;23.288;2023-02-07T19:14:42;96412.53;;;-5.36;100.00
10075;BME280;5076;42.680;23.288;2023-02-07T19:17:09;96412.53;;;-5.36;100.00
10075;BME280;5076;42.680;23.288;2023-02-07T19:19:38;96409.50;;;-5.41;100.00
10075;BME280;5076;42.680;23.288;2023-02-07T19:22:05;96402.59;;;-5.41;100.00
10075;BME280;5076;42.680;23.288;2023-02-07T19:24:32;96408.44;;;-5.50;100.00
10075;BME280;5076;42.680;23.288;2023-02-07T19:26:59;96414.19;;;-5.35;100.00
10075;BME280;5076;42.680;23.288;2023-02-07T19:29:27;96415.66;;;-5.33;100.00
10075;BME280;5076;42.680;23.288;2023-02-07T19:31:57;96413.81;;;-5.42;100.00
10075;BME280;5076;42.680;23.288;2023-02-07T19:34:24;96403.88;;;-5.46;100.00
10075;BME280;5076;42.680;23.288;2023-02-07T19:36:51;96399.78;;;-5.49;100.00
10075;BME280;5076;42.680;23.288;2023-02-07T19:39:18;96412.09;;;-5.52;100.00
10075;BME280;5076;42.680;23.288;2023-02-07T19:41:46;96418.28;;;-5.55;100.00
10075;BME280;5076;42.680;23.288;2023-02-07T19:44:12;96415.94;;;-5.58;100.00
10075;BME280;5076;42.680;23.288;2023-02-07T19:46:40;96423.91;;;-5.61;100.00
10075;BME280;5076;42.680;23.288;2023-02-07T19:49:10;96425.06;;;-5.65;100.00
10075;BME280;5076;42.680;23.288;2023-02-07T19:51:37;96408.13;;;-5.79;100.00
10075;BME280;5076;42.680;23.288;2023-02-07T19:54:07;96421.69;;;-5.77;100.00
10075;BME280;5076;42.680;23.288;2023-02-07T19:56:34;96424.50;;;-5.69;100.00
10075;BME280;5076;42.680;23.288;2023-02-07T19:59:03;96413.38;;;-5.80;100.00
10075;BME280;5076;42.680;23.288;2023-02-07T20:01:32;96428.84;;;-5.69;100.00
10075;BME280;5076;42.680;23.288;2023-02-07T20:04:00;96435.53;;;-5.67;100.00
10075;BME280;5076;42.680;23.288;2023-02-07T20:06:30;96422.88;;;-5.81;100.00
10075;BME280;5076;42.680;23.288;2023-02-07T20:08:59;96436.69;;;-5.71;100.00
10075;BME280;5076;42.680;23.288;2023-02-07T20:11:26;96447.22;;;-5.74;100.00
10075;BME280;5076;42.680;23.288;2023-02-07T20:13:57;96440.91;;;-5.70;100.00
10075;BME280;5076;42.680;23.288;2023-02-07T20:16:28;96428.72;;;-5.79;100.00
10075;BME280;5076;42.680;23.288;2023-02-07T20:18:55;96436.69;;;-5.82;100.00
10075;BME280;5076;42.680;23.288;2023-02-07T20:21:25;96445.59;;;-5.86;100.00
10075;BME280;5076;42.680;23.288;2023-02-07T20:23:54;96441.63;;;-5.90;100.00
10075;BME280;5076;42.680;23.288;2023-02-07T20:26:23;96425.25;;;-5.89;100.00
10075;BME280;5076;42.680;23.288;2023-02-07T20:28:50;96448.88;;;-5.84;100.00
10075;BME280;5076;42.680;23.288;2023-02-07T20:31:19;96448.28;;;-5.87;100.00
10075;BME280;5076;42.680;23.288;2023-02-07T20:33:46;96458.22;;;-5.83;100.00
10075;BME280;5076;42.680;23.288;2023-02-07T20:36:15;96457.06;;;-5.90;100.00
10075;BME280;5076;42.680;23.288;2023-02-07T20:38:44;96441.41;;;-5.98;100.00
10075;BME280;5076;42.680;23.288;2023-02-07T20:41:14;96460.31;;;-5.77;100.00
10075;BME280;5076;42.680;23.288;2023-02-07T20:43:53;96444.44;;;-5.93;100.00
10075;BME280;5076;42.680;23.288;2023-02-07T20:46:22;96455.41;;;-5.80;100.00
10075;BME280;5076;42.680;23.288;2023-02-07T20:49:02;96439.97;;;-5.91;100.00
10075;BME280;5076;42.680;23.288;2023-02-07T20:51:43;96460.91;;;-5.84;100.00
10075;BME280;5076;42.680;23.288;2023-02-07T20:54:14;96445.03;;;-6.00;100.00
10075;BME280;5076;42.680;23.288;2023-02-07T20:56:43;96432.75;;;-5.97;100.00
10075;BME280;5076;42.680;23.288;2023-02-07T20:59:15;96440.81;;;-5.90;100.00
10075;BME280;5076;42.680;23.288;2023-02-07T21:01:42;96456.91;;;-5.44;100.00
10075;BME280;5076;42.680;23.288;2023-02-07T21:04:09;96451.31;;;-5.82;100.00
10075;BME280;5076;42.680;23.288;2023-02-07T21:06:36;96447.44;;;-5.88;100.00
10075;BME280;5076;42.680;23.288;2023-02-07T21:09:05;96451.44;;;-5.84;100.00
10075;BME280;5076;42.680;23.288;2023-02-07T21:11:35;96457.28;;;-5.82;100.00
10075;BME280;5076;42.680;23.288;2023-02-07T21:14:05;96430.75;;;-6.05;100.00
10075;BME280;5076;42.680;23.288;2023-02-07T21:16:33;96452.84;;;-5.91;100.00
10075;BME280;5076;42.680;23.288;2023-02-07T21:19:00;96440.81;;;-6.01;100.00
10075;BME280;5076;42.680;23.288;2023-02-07T21:21:28;96439.38;;;-6.06;100.00
10075;BME280;5076;42.680;23.288;2023-02-07T21:23:56;96464.44;;;-5.96;100.00
10075;BME280;5076;42.680;23.288;2023-02-07T21:26:23;96448.63;;;-6.03;100.00
10075;BME280;5076;42.680;23.288;2023-02-07T21:28:55;96466.53;;;-6.01;100.00
10075;BME280;5076;42.680;23.288;2023-02-07T21:31:24;96443.72;;;-6.06;100.00
10075;BME280;5076;42.680;23.288;2023-02-07T21:33:51;96465.28;;;-5.96;100.00
10075;BME280;5076;42.680;23.288;2023-02-07T21:36:20;96469.00;;;-6.00;100.00
10075;BME280;5076;42.680;23.288;2023-02-07T21:38:48;96464.78;;;-6.01;100.00
10075;BME280;5076;42.680;23.288;2023-02-07T21:41:18;96463.63;;;-5.97;100.00
10075;BME280;5076;42.680;23.288;2023-02-07T21:43:45;96457.78;;;-5.99;100.00
10075;BME280;5076;42.680;23.288;2023-02-07T21:46:13;96464.19;;;-5.82;100.00
10075;BME280;5076;42.680;23.288;2023-02-07T21:48:45;96454.72;;;-5.93;100.00
10075;BME280;5076;42.680;23.288;2023-02-07T21:51:14;96466.66;;;-5.92;100.00
10075;BME280;5076;42.680;23.288;2023-02-07T21:53:42;96451.91;;;-6.01;100.00
10075;BME280;5076;42.680;23.288;2023-02-07T21:56:12;96461.50;;;-5.92;100.00
10075;BME280;5076;42.680;23.288;2023-02-07T21:58:39;96470.53;;;-5.97;100.00
10075;BME280;5076;42.680;23.288;2023-02-07T22:01:09;96446.19;;;-6.05;100.00
10075;BME280;5076;42.680;23.288;2023-02-07T22:03:37;96475.19;;;-5.91;100.00
10075;BME280;5076;42.680;23.288;2023-02-07T22:06:07;96472.75;;;-5.93;100.00
10075;BME280;5076;42.680;23.288;2023-02-07T22:08:35;96470.97;;;-6.04;100.00
10075;BME280;5076;42.680;23.288;2023-02-07T22:11:03;96484.44;;;-5.89;100.00
10075;BME280;5076;42.680;23.288;2023-02-07T22:13:30;96489.22;;;-5.95;100.00
10075;BME280;5076;42.680;23.288;2023-02-07T22:15:57;96476.25;;;-6.05;100.00
10075;BME280;5076;42.680;23.288;2023-02-07T22:18:25;96489.13;;;-5.94;100.00
10075;BME280;5076;42.680;23.288;2023-02-07T22:20:52;96489.59;;;-6.00;100.00
10075;BME280;5076;42.680;23.288;2023-02-07T22:23:20;96491.22;;;-5.99;100.00
10075;BME280;5076;42.680;23.288;2023-02-07T22:25:47;96494.50;;;-5.97;100.00
10075;BME280;5076;42.680;23.288;2023-02-07T22:28:14;96496.38;;;-5.99;100.00
10075;BME280;5076;42.680;23.288;2023-02-07T22:30:41;96485.88;;;-5.96;100.00
10075;BME280;5076;42.680;23.288;2023-02-07T22:33:09;96495.56;;;-5.88;100.00
10075;BME280;5076;42.680;23.288;2023-02-07T22:35:38;96499.19;;;-5.91;100.00
10075;BME280;5076;42.680;23.288;2023-02-07T22:38:06;96484.66;;;-6.03;100.00
10075;BME280;5076;42.680;23.288;2023-02-07T22:40:36;96502.81;;;-5.93;100.00
10075;BME280;5076;42.680;23.288;2023-02-07T22:43:05;96489.09;;;-6.05;100.00
10075;BME280;5076;42.680;23.288;2023-02-07T22:45:34;96497.19;;;-5.87;100.00
10075;BME280;5076;42.680;23.288;2023-02-07T22:48:01;96487.25;;;-5.92;100.00
10075;BME280;5076;42.680;23.288;2023-02-07T22:50:28;96484.91;;;-5.95;100.00
10075;BME280;5076;42.680;23.288;2023-02-07T22:52:55;96497.53;;;-5.92;100.00
10075;BME280;5076;42.680;23.288;2023-02-07T22:55:22;96490.03;;;-5.95;100.00
10075;BME280;5076;42.680;23.288;2023-02-07T22:57:51;96503.38;;;-5.79;100.00
10075;BME280;5076;42.680;23.288;2023-02-07T23:00:18;96486.19;;;-5.89;100.00
10075;BME280;5076;42.680;23.288;2023-02-07T23:02:45;96490.16;;;-5.85;100.00
10075;BME280;5076;42.680;23.288;2023-02-07T23:05:12;96487.69;;;-5.76;100.00
10075;BME280;5076;42.680;23.288;2023-02-07T23:07:39;96489.44;;;-5.65;100.00
10075;BME280;5076;42.680;23.288;2023-02-07T23:10:07;96482.69;;;-5.66;100.00
10075;BME280;5076;42.680;23.288;2023-02-07T23:12:34;96476.94;;;-5.70;100.00
10075;BME280;5076;42.680;23.288;2023-02-07T23:15:03;96485.03;;;-5.52;100.00
10075;BME280;5076;42.680;23.288;2023-02-07T23:17:30;96493.09;;;-5.45;100.00
10075;BME280;5076;42.680;23.288;2023-02-07T23:19:57;96489.81;;;-5.47;100.00
10075;BME280;5076;42.680;23.288;2023-02-07T23:22:24;96484.31;;;-5.54;100.00
10075;BME280;5076;42.680;23.288;2023-02-07T23:24:53;96490.88;;;-5.39;100.00
10075;BME280;5076;42.680;23.288;2023-02-07T23:27:20;96472.81;;;-5.50;100.00
10075;BME280;5076;42.680;23.288;2023-02-07T23:29:47;96486.53;;;-5.38;100.00
10075;BME280;5076;42.680;23.288;2023-02-07T23:32:15;96481.16;;;-5.57;100.00
10075;BME280;5076;42.680;23.288;2023-02-07T23:34:43;96472.81;;;-5.50;100.00
10075;BME280;5076;42.680;23.288;2023-02-07T23:37:09;96491.59;;;-5.37;100.00
10075;BME280;5076;42.680;23.288;2023-02-07T23:39:36;96488.63;;;-5.32;100.00
10075;BME280;5076;42.680;23.288;2023-02-07T23:42:03;96455.06;;;-5.53;100.00
10075;BME280;5076;42.680;23.288;2023-02-07T23:44:34;96476.72;;;-5.55;100.00
10075;BME280;5076;42.680;23.288;2023-02-07T23:47:01;96472.03;;;-5.39;100.00
10075;BME280;5076;42.680;23.288;2023-02-07T23:49:30;96487.72;;;-5.42;100.00
10075;BME280;5076;42.680;23.288;2023-02-07T23:51:56;96485.50;;;-5.36;100.00
10075;BME280;5076;42.680;23.288;2023-02-07T23:54:23;96481.00;;;-5.34;100.00
10075;BME280;5076;42.680;23.288;2023-02-07T23:56:50;96463.13;;;-5.46;100.00
10075;BME280;5076;42.680;23.288;2023-02-07T23:59:17;96450.47;;;-5.49;100.00
